createdAt,value
2023-03-30T00:01:15.346Z,16.80
2023-03-30T00:03:45.963Z,14.50
2023-03-30T00:06:22.107Z,16.90
2023-03-30T00:08:58.661Z,13.90
2023-03-30T00:11:27.550Z,15.10
2023-03-30T00:13:55.679Z,18.70
2023-03-30T00:16:23.844Z,16.00
2023-03-30T00:18:52.223Z,16.20
2023-03-30T00:21:20.903Z,14.90
2023-03-30T00:23:49.698Z,16.70
2023-03-30T00:26:18.109Z,16.80
2023-03-30T00:28:46.338Z,16.60
2023-03-30T00:31:14.387Z,13.70
2023-03-30T00:33:46.947Z,17.50
2023-03-30T00:36:17.186Z,17.60
2023-03-30T00:38:46.021Z,18.90
2023-03-30T00:41:15.059Z,16.30
2023-03-30T00:44:05.193Z,17.00
2023-03-30T00:46:33.935Z,20.30
2023-03-30T00:49:08.968Z,15.40
2023-03-30T00:51:42.432Z,14.40
2023-03-30T00:54:15.538Z,18.40
2023-03-30T00:56:43.726Z,16.30
2023-03-30T00:59:12.232Z,16.40
2023-03-30T01:01:42.026Z,15.50
2023-03-30T01:04:13.472Z,17.40
2023-03-30T01:06:43.766Z,18.00
2023-03-30T01:09:12.817Z,17.70
2023-03-30T01:11:40.979Z,16.30
2023-03-30T01:14:11.942Z,18.30
2023-03-30T01:16:48.893Z,19.50
2023-03-30T01:20:13.122Z,15.40
2023-03-30T01:22:47.263Z,16.10
2023-03-30T01:25:45.121Z,17.70
2023-03-30T01:28:37.862Z,13.10
2023-03-30T01:31:25.862Z,15.90
2023-03-30T01:34:05.791Z,17.80
2023-03-30T01:36:46.035Z,14.60
2023-03-30T01:39:42.011Z,14.20
2023-03-30T01:42:49.439Z,17.60
2023-03-30T01:45:30.368Z,13.30
2023-03-30T01:48:34.660Z,16.70
2023-03-30T01:51:08.882Z,15.30
2023-03-30T01:54:10.108Z,16.30
2023-03-30T01:56:47.628Z,13.50
2023-03-30T01:59:28.522Z,15.80
2023-03-30T02:02:00.687Z,17.60
2023-03-30T02:04:33.928Z,15.10
2023-03-30T02:07:11.277Z,14.70
2023-03-30T02:09:42.238Z,14.60
2023-03-30T02:12:11.635Z,17.30
2023-03-30T02:14:41.826Z,17.00
2023-03-30T02:17:16.456Z,14.10
2023-03-30T02:19:48.946Z,16.10
2023-03-30T02:22:19.594Z,15.30
2023-03-30T02:24:51.699Z,16.70
2023-03-30T02:27:20.276Z,16.00
2023-03-30T02:29:49.788Z,15.80
2023-03-30T02:32:32.726Z,18.80
2023-03-30T02:35:25.680Z,16.10
2023-03-30T02:37:54.085Z,14.70
2023-03-30T02:40:40.402Z,12.60
2023-03-30T02:43:44.645Z,14.70
2023-03-30T02:46:43.018Z,16.70
2023-03-30T02:49:14.549Z,13.30
2023-03-30T02:51:56.834Z,14.90
2023-03-30T02:55:09.978Z,18.70
2023-03-30T02:57:51.419Z,14.40
2023-03-30T03:00:58.105Z,13.30
2023-03-30T03:03:38.508Z,16.00
2023-03-30T03:06:09.666Z,15.30
2023-03-30T03:08:47.850Z,17.10
2023-03-30T03:11:20.533Z,13.80
2023-03-30T03:13:49.916Z,14.70
2023-03-30T03:16:18.558Z,20.70
2023-03-30T03:19:19.241Z,17.20
2023-03-30T03:21:49.225Z,15.80
2023-03-30T03:24:19.092Z,15.40
2023-03-30T03:27:13.457Z,17.50
2023-03-30T03:30:09.551Z,14.50
2023-03-30T03:32:43.636Z,17.60
2023-03-30T03:35:12.291Z,14.40
2023-03-30T03:37:43.704Z,14.50
2023-03-30T03:40:12.260Z,16.30
2023-03-30T03:42:40.948Z,13.20
2023-03-30T03:45:11.463Z,15.70
2023-03-30T03:47:53.902Z,18.70
2023-03-30T03:50:33.363Z,17.50
2023-03-30T03:53:01.661Z,17.90
2023-03-30T03:55:29.812Z,22.70
2023-03-30T03:57:58.170Z,22.30
2023-03-30T04:00:27.062Z,16.30
2023-03-30T04:02:55.309Z,15.30
2023-03-30T04:05:23.828Z,12.80
2023-03-30T04:07:53.742Z,16.40
2023-03-30T04:10:21.693Z,13.90
2023-03-30T04:13:18.104Z,11.50
2023-03-30T04:16:11.811Z,18.00
2023-03-30T04:19:00.109Z,13.60
2023-03-30T04:21:41.146Z,17.60
2023-03-30T04:24:29.947Z,16.60
2023-03-30T04:27:25.943Z,16.40
2023-03-30T04:30:18.384Z,15.20
2023-03-30T04:33:05.074Z,17.10
2023-03-30T04:35:51.952Z,17.30
2023-03-30T04:38:37.904Z,15.50
2023-03-30T04:41:06.360Z,15.70
2023-03-30T04:43:54.828Z,18.30
2023-03-30T04:46:47.253Z,16.50
2023-03-30T04:49:35.514Z,18.60
2023-03-30T04:52:29.655Z,13.30
2023-03-30T04:55:20.113Z,17.80
2023-03-30T04:58:07.328Z,15.30
2023-03-30T05:00:35.356Z,18.60
2023-03-30T05:03:24.045Z,16.80
2023-03-30T05:06:11.586Z,18.70
2023-03-30T05:08:42.311Z,16.50
2023-03-30T05:11:26.944Z,16.20
2023-03-30T05:14:19.900Z,18.00
2023-03-30T05:17:19.971Z,17.40
2023-03-30T05:19:58.945Z,17.00
2023-03-30T05:22:47.797Z,15.90
2023-03-30T05:25:34.192Z,14.10
2023-03-30T05:28:22.487Z,14.30
2023-03-30T05:31:04.754Z,16.50
2023-03-30T05:34:05.046Z,16.20
2023-03-30T05:36:55.010Z,14.20
2023-03-30T05:39:45.496Z,20.50
2023-03-30T05:42:25.325Z,18.10
2023-03-30T05:45:19.221Z,23.90
2023-03-30T05:47:50.276Z,19.60
2023-03-30T05:50:36.653Z,19.40
2023-03-30T05:53:06.754Z,21.80
2023-03-30T05:55:53.795Z,28.30
2023-03-30T05:58:54.499Z,24.10
2023-03-30T06:01:41.989Z,20.00
2023-03-30T06:04:10.490Z,24.60
2023-03-30T06:06:38.815Z,19.60
2023-03-30T06:09:06.722Z,15.60
2023-03-30T06:11:35.857Z,13.00
2023-03-30T06:14:10.695Z,15.70
2023-03-30T06:16:40.340Z,16.80
2023-03-30T06:19:08.987Z,16.60
2023-03-30T06:21:36.985Z,19.20
2023-03-30T06:24:20.405Z,17.10
2023-03-30T06:26:48.797Z,18.50
2023-03-30T06:29:17.082Z,17.60
2023-03-30T06:31:45.473Z,18.00
2023-03-30T06:34:48.665Z,18.10
2023-03-30T06:37:17.561Z,18.30
2023-03-30T06:39:46.371Z,17.80
2023-03-30T06:42:14.653Z,16.50
2023-03-30T06:44:56.983Z,16.60
2023-03-30T06:47:31.899Z,28.90
2023-03-30T06:50:00.173Z,28.80
2023-03-30T06:53:00.580Z,27.20
2023-03-30T06:55:33.299Z,26.40
2023-03-30T06:58:01.706Z,24.50
2023-03-30T07:00:30.209Z,19.30
2023-03-30T07:03:20.903Z,22.00
2023-03-30T07:06:00.597Z,16.50
2023-03-30T07:08:38.345Z,15.10
2023-03-30T07:11:07.170Z,18.10
2023-03-30T07:13:36.772Z,17.50
2023-03-30T07:16:05.418Z,21.50
2023-03-30T07:18:33.356Z,20.60
2023-03-30T07:21:01.709Z,25.00
2023-03-30T07:23:34.353Z,20.90
2023-03-30T07:26:02.964Z,17.90
2023-03-30T07:28:47.281Z,17.90
2023-03-30T07:31:17.343Z,16.90
2023-03-30T07:33:45.897Z,15.50
2023-03-30T07:36:17.571Z,16.30
2023-03-30T07:38:46.315Z,21.20
2023-03-30T07:41:16.656Z,17.90
2023-03-30T07:43:45.560Z,19.00
2023-03-30T07:46:13.571Z,17.50
2023-03-30T07:48:44.678Z,16.20
2023-03-30T07:51:13.881Z,20.10
2023-03-30T07:53:49.990Z,16.40
2023-03-30T07:56:23.998Z,19.50
2023-03-30T07:58:54.722Z,16.60
2023-03-30T08:01:25.922Z,15.70
2023-03-30T08:04:28.199Z,11.90
2023-03-30T08:06:56.571Z,19.50
2023-03-30T08:09:24.728Z,19.60
2023-03-30T08:11:52.752Z,18.80
2023-03-30T08:14:20.963Z,18.70
2023-03-30T08:16:49.192Z,23.10
2023-03-30T08:19:17.395Z,16.20
2023-03-30T08:21:45.776Z,18.60
2023-03-30T08:24:13.747Z,15.90
2023-03-30T08:26:42.223Z,22.60
2023-03-30T08:29:11.489Z,21.70
2023-03-30T08:31:39.359Z,19.50
2023-03-30T08:34:08.792Z,22.30
2023-03-30T08:36:37.219Z,20.80
2023-03-30T08:39:05.343Z,17.90
2023-03-30T08:41:52.996Z,17.80
2023-03-30T08:44:49.784Z,17.80
2023-03-30T08:47:30.643Z,19.40
2023-03-30T08:50:32.061Z,20.20
2023-03-30T08:53:00.655Z,18.90
2023-03-30T08:55:49.811Z,16.80
2023-03-30T08:58:40.767Z,19.90
2023-03-30T09:01:23.458Z,16.10
2023-03-30T09:04:29.307Z,17.60
2023-03-30T09:07:08.534Z,15.50
2023-03-30T09:09:44.245Z,16.80
2023-03-30T09:12:38.433Z,15.70
2023-03-30T09:15:18.728Z,15.60
2023-03-30T09:18:09.075Z,18.20
2023-03-30T09:20:39.469Z,25.80
2023-03-30T09:23:13.418Z,18.90
2023-03-30T09:25:53.643Z,14.40
2023-03-30T09:28:34.972Z,17.20
2023-03-30T09:31:20.541Z,18.60
2023-03-30T09:34:23.060Z,17.60
2023-03-30T09:37:11.805Z,20.10
2023-03-30T09:39:41.480Z,17.10
2023-03-30T09:42:18.638Z,22.00
2023-03-30T09:44:55.332Z,16.10
2023-03-30T09:47:35.728Z,20.10
2023-03-30T09:50:08.237Z,17.00
2023-03-30T09:52:40.366Z,19.60
2023-03-30T09:55:20.817Z,16.70
2023-03-30T09:57:51.166Z,12.70
2023-03-30T10:00:25.264Z,12.70
2023-03-30T10:03:01.607Z,15.10
2023-03-30T10:05:32.419Z,15.90
2023-03-30T10:08:06.570Z,14.60
2023-03-30T10:10:41.151Z,19.70
2023-03-30T10:13:17.887Z,17.20
2023-03-30T10:15:53.009Z,17.40
2023-03-30T10:18:27.910Z,18.70
2023-03-30T10:21:05.423Z,14.40
2023-03-30T10:23:40.230Z,17.40
2023-03-30T10:26:20.623Z,15.00
2023-03-30T10:28:57.377Z,13.80
2023-03-30T10:31:28.335Z,14.30
2023-03-30T10:34:01.525Z,13.90
2023-03-30T10:36:39.028Z,17.50
2023-03-30T10:39:22.489Z,16.40
2023-03-30T10:41:51.871Z,14.20
2023-03-30T10:44:30.067Z,16.30
2023-03-30T10:47:10.917Z,14.60
2023-03-30T10:50:06.814Z,14.00
2023-03-30T10:52:59.916Z,17.30
2023-03-30T10:55:41.852Z,17.20
2023-03-30T10:58:28.131Z,14.10
2023-03-30T11:01:07.251Z,14.80
2023-03-30T11:03:38.951Z,17.10
2023-03-30T11:06:23.208Z,14.90
2023-03-30T11:08:54.718Z,13.70
2023-03-30T11:11:35.502Z,13.50
2023-03-30T11:14:25.655Z,17.00
2023-03-30T11:17:05.064Z,13.40
2023-03-30T11:19:42.565Z,13.90
2023-03-30T11:22:38.638Z,19.10
2023-03-30T11:25:21.310Z,15.70
2023-03-30T11:28:18.597Z,15.90
2023-03-30T11:30:49.211Z,14.20
2023-03-30T11:33:36.767Z,13.80
2023-03-30T11:36:18.905Z,15.90
2023-03-30T11:39:04.847Z,12.70
2023-03-30T11:42:14.797Z,13.90
2023-03-30T11:44:43.794Z,15.40
2023-03-30T11:47:30.792Z,16.90
2023-03-30T11:50:36.569Z,12.90
2023-03-30T11:53:24.548Z,15.60
2023-03-30T11:56:07.260Z,15.10
2023-03-30T11:58:42.472Z,13.00
2023-03-30T12:01:40.233Z,14.70
2023-03-30T12:04:12.583Z,13.90
2023-03-30T12:06:57.985Z,12.60
2023-03-30T12:09:34.342Z,15.70
2023-03-30T12:12:15.907Z,15.80
2023-03-30T12:14:50.204Z,17.90
2023-03-30T12:17:28.435Z,11.30
2023-03-30T12:20:07.965Z,13.40
2023-03-30T12:22:50.175Z,16.00
2023-03-30T12:25:55.913Z,11.40
2023-03-30T12:28:31.969Z,11.20
2023-03-30T12:31:07.814Z,10.20
2023-03-30T12:33:57.759Z,13.20
2023-03-30T12:36:38.903Z,9.80
2023-03-30T12:39:22.055Z,10.20
2023-03-30T12:41:51.236Z,13.00
2023-03-30T12:44:43.978Z,12.80
2023-03-30T12:47:39.544Z,9.70
2023-03-30T12:50:32.033Z,6.60
2023-03-30T12:53:21.340Z,8.10
2023-03-30T12:56:10.058Z,9.20
2023-03-30T12:58:56.355Z,9.50
2023-03-30T13:01:41.762Z,8.70
2023-03-30T13:04:24.135Z,9.90
2023-03-30T13:07:17.940Z,8.10
2023-03-30T13:13:51.428Z,7.50
2023-03-30T13:17:08.810Z,9.60
2023-03-30T13:19:41.180Z,8.60
2023-03-30T13:22:24.909Z,7.90
2023-03-30T13:25:20.885Z,6.30
2023-03-30T13:27:56.796Z,7.70
2023-03-30T13:30:29.522Z,8.40
2023-03-30T13:33:12.689Z,9.50
2023-03-30T13:36:00.550Z,11.80
2023-03-30T13:38:57.809Z,8.30
2023-03-30T13:41:45.053Z,7.40
2023-03-30T13:44:28.708Z,11.50
2023-03-30T13:47:16.480Z,9.90
2023-03-30T13:49:53.655Z,11.80
2023-03-30T13:52:31.363Z,8.20
2023-03-30T13:55:02.069Z,7.30
2023-03-30T13:57:43.852Z,8.60
2023-03-30T14:00:47.264Z,9.00
2023-03-30T14:03:39.041Z,8.00
2023-03-30T14:06:08.618Z,10.30
2023-03-30T14:08:40.531Z,9.60
2023-03-30T14:11:15.748Z,10.70
2023-03-30T14:13:47.526Z,12.90
2023-03-30T14:16:21.943Z,14.70
2023-03-30T14:18:51.090Z,9.40
2023-03-30T14:21:26.224Z,12.20
2023-03-30T14:23:55.436Z,9.50
2023-03-30T14:26:31.816Z,9.00
2023-03-30T14:29:06.401Z,9.20
2023-03-30T14:31:41.434Z,11.40
2023-03-30T14:34:33.970Z,11.40
2023-03-30T14:37:06.792Z,12.50
2023-03-30T14:39:42.144Z,10.40
2023-03-30T14:42:20.836Z,12.80
2023-03-30T14:44:52.289Z,14.40
2023-03-30T14:47:28.840Z,12.00
2023-03-30T14:50:01.309Z,11.80
2023-03-30T14:52:38.322Z,13.00
2023-03-30T14:55:13.778Z,21.80
2023-03-30T14:57:47.007Z,19.00
2023-03-30T15:00:20.670Z,12.90
2023-03-30T15:02:54.258Z,12.70
2023-03-30T15:05:28.686Z,13.80
2023-03-30T15:07:56.806Z,17.40
2023-03-30T15:10:33.336Z,16.10
2023-03-30T15:13:04.985Z,16.30
2023-03-30T15:15:33.482Z,18.40
2023-03-30T15:18:06.029Z,13.70
2023-03-30T15:20:34.195Z,21.80
2023-03-30T15:23:02.303Z,23.10
2023-03-30T15:25:35.730Z,22.50
2023-03-30T15:28:21.560Z,30.40
2023-03-30T15:30:53.114Z,21.00
2023-03-30T15:33:31.890Z,24.70
2023-03-30T15:36:11.521Z,21.70
2023-03-30T15:38:58.892Z,21.10
2023-03-30T15:42:04.763Z,23.40
2023-03-30T15:44:41.593Z,20.50
2023-03-30T15:47:20.232Z,18.50
2023-03-30T15:49:51.848Z,22.00
2023-03-30T15:52:32.175Z,23.80
2023-03-30T15:55:11.461Z,20.90
2023-03-30T15:57:43.711Z,20.60
2023-03-30T16:00:20.388Z,19.50
2023-03-30T16:02:57.996Z,21.10
2023-03-30T16:05:28.994Z,28.70
2023-03-30T16:07:57.000Z,19.40
2023-03-30T16:10:29.405Z,16.40
2023-03-30T16:13:01.275Z,16.10
2023-03-30T16:15:32.120Z,14.80
2023-03-30T16:18:00.625Z,33.20
2023-03-30T16:20:31.354Z,24.20
2023-03-30T16:23:01.704Z,25.50
2023-03-30T16:25:44.089Z,22.80
2023-03-30T16:28:17.717Z,18.70
2023-03-30T16:30:49.656Z,18.90
2023-03-30T16:33:20.433Z,15.40
2023-03-30T16:35:48.744Z,18.70
2023-03-30T16:38:18.041Z,16.20
2023-03-30T16:41:07.783Z,17.20
2023-03-30T16:43:35.973Z,22.40
2023-03-30T16:46:04.107Z,20.80
2023-03-30T16:48:32.124Z,21.70
2023-03-30T16:51:00.419Z,24.30
2023-03-30T16:53:28.608Z,27.00
2023-03-30T16:55:56.682Z,39.70
2023-03-30T16:58:24.807Z,32.90
2023-03-30T17:00:57.200Z,35.40
2023-03-30T17:03:25.159Z,25.50
2023-03-30T17:05:53.173Z,21.50
2023-03-30T17:08:23.661Z,19.00
2023-03-30T17:10:53.962Z,16.00
2023-03-30T17:13:24.136Z,16.20
2023-03-30T17:15:52.412Z,18.30
2023-03-30T17:18:23.134Z,16.70
2023-03-30T17:20:55.694Z,19.10
2023-03-30T17:23:26.485Z,19.70
2023-03-30T17:25:57.092Z,20.50
2023-03-30T17:28:30.161Z,22.00
2023-03-30T17:31:01.517Z,23.80
2023-03-30T17:33:31.068Z,26.60
2023-03-30T17:36:16.073Z,26.80
2023-03-30T17:38:44.513Z,20.90
2023-03-30T17:41:17.256Z,20.60
2023-03-30T17:43:47.672Z,19.90
2023-03-30T17:46:18.677Z,22.80
2023-03-30T17:48:48.004Z,21.50
2023-03-30T17:51:16.084Z,23.10
2023-03-30T17:53:44.282Z,19.70
2023-03-30T17:56:14.075Z,20.90
2023-03-30T17:58:42.141Z,21.50
2023-03-30T18:01:13.264Z,19.70
2023-03-30T18:03:42.163Z,21.20
2023-03-30T18:06:13.385Z,23.60
2023-03-30T18:08:43.061Z,18.60
2023-03-30T18:11:11.456Z,23.00
2023-03-30T18:13:39.861Z,23.30
2023-03-30T18:16:13.062Z,23.00
2023-03-30T18:18:41.661Z,22.70
2023-03-30T18:21:12.553Z,22.50
2023-03-30T18:23:40.773Z,23.50
2023-03-30T18:26:13.033Z,25.90
2023-03-30T18:28:46.824Z,24.90
2023-03-30T18:31:15.066Z,25.50
2023-03-30T18:33:43.124Z,25.50
2023-03-30T18:36:14.785Z,20.50
2023-03-30T18:38:43.002Z,20.00
2023-03-30T18:41:12.845Z,23.30
2023-03-30T18:43:40.949Z,20.30
2023-03-30T18:46:13.124Z,22.40
2023-03-30T18:48:41.455Z,22.00
2023-03-30T18:51:12.757Z,20.10
2023-03-30T18:53:41.136Z,21.40
2023-03-30T18:56:11.897Z,21.40
2023-03-30T18:58:43.179Z,20.60
2023-03-30T19:01:13.435Z,16.10
2023-03-30T19:03:45.461Z,15.90
2023-03-30T19:06:19.952Z,19.10
2023-03-30T19:08:47.952Z,18.70
2023-03-30T19:11:23.842Z,16.10
2023-03-30T19:13:56.704Z,20.40
2023-03-30T19:16:24.968Z,14.40
2023-03-30T19:18:53.811Z,19.60
2023-03-30T19:21:26.197Z,17.00
2023-03-30T19:23:56.552Z,18.90
2023-03-30T19:26:24.666Z,17.80
2023-03-30T19:28:52.678Z,19.10
2023-03-30T19:31:21.056Z,17.20
2023-03-30T19:33:49.208Z,18.40
2023-03-30T19:36:17.234Z,24.20
2023-03-30T19:38:45.974Z,17.60
2023-03-30T19:41:14.104Z,17.70
2023-03-30T19:43:42.018Z,22.80
2023-03-30T19:46:10.871Z,17.20
2023-03-30T19:48:38.964Z,16.80
2023-03-30T19:51:07.178Z,17.80
2023-03-30T19:53:37.275Z,18.30
2023-03-30T19:56:10.485Z,18.90
2023-03-30T19:58:38.941Z,19.70
2023-03-30T20:01:08.395Z,21.00
2023-03-30T20:03:37.161Z,20.90
2023-03-30T20:06:09.504Z,22.70
2023-03-30T20:08:41.236Z,24.30
2023-03-30T20:11:11.297Z,24.10
2023-03-30T20:13:45.667Z,19.40
2023-03-30T20:16:21.366Z,22.40
2023-03-30T20:18:52.319Z,22.30
2023-03-30T20:21:23.092Z,22.20
2023-03-30T20:23:51.250Z,22.60
2023-03-30T20:26:19.578Z,21.40
2023-03-30T20:28:48.161Z,21.50
2023-03-30T20:31:17.136Z,20.60
2023-03-30T20:33:45.695Z,23.20
2023-03-30T20:36:14.012Z,21.40
2023-03-30T20:38:46.114Z,25.60
2023-03-30T20:41:16.847Z,23.20
2023-03-30T20:43:57.046Z,24.60
2023-03-30T20:46:26.258Z,24.60
2023-03-30T20:49:02.361Z,22.40
2023-03-30T20:51:31.422Z,19.70
2023-03-30T20:53:59.460Z,23.40
2023-03-30T20:56:28.720Z,23.40
2023-03-30T20:58:57.270Z,23.90
2023-03-30T21:01:28.251Z,22.30
2023-03-30T21:03:58.742Z,18.50
2023-03-30T21:06:29.668Z,18.20
2023-03-30T21:09:01.483Z,21.40
2023-03-30T21:11:30.951Z,20.20
2023-03-30T21:13:58.835Z,20.30
2023-03-30T21:16:27.944Z,17.00
2023-03-30T21:18:56.343Z,17.30
2023-03-30T21:21:24.710Z,13.20
2023-03-30T21:23:52.735Z,16.10
2023-03-30T21:26:21.657Z,18.20
2023-03-30T21:28:49.506Z,15.70
2023-03-30T21:31:17.749Z,14.40
2023-03-30T21:33:45.735Z,14.40
2023-03-30T21:36:13.685Z,15.60
2023-03-30T21:38:42.179Z,16.40
2023-03-30T21:41:15.957Z,14.60
2023-03-30T21:43:47.592Z,13.50
2023-03-30T21:46:24.654Z,14.80
2023-03-30T21:48:54.173Z,13.10
2023-03-30T21:51:28.336Z,17.10
2023-03-30T21:53:57.397Z,12.50
2023-03-30T21:56:29.287Z,16.10
2023-03-30T21:58:58.495Z,15.30
2023-03-30T22:01:26.906Z,16.00
2023-03-30T22:03:55.582Z,13.50
2023-03-30T22:06:24.293Z,15.80
2023-03-30T22:08:52.638Z,14.20
2023-03-30T22:11:26.263Z,16.20
2023-03-30T22:13:55.374Z,16.00
2023-03-30T22:16:31.629Z,13.10
2023-03-30T22:18:59.732Z,14.90
2023-03-30T22:21:35.619Z,14.00
2023-03-30T22:24:07.624Z,17.00
2023-03-30T22:26:36.394Z,15.80
2023-03-30T22:29:05.101Z,16.20
2023-03-30T22:31:33.222Z,14.90
2023-03-30T22:34:01.253Z,14.60
2023-03-30T22:36:31.049Z,16.20
2023-03-30T22:39:00.980Z,15.30
2023-03-30T22:41:29.574Z,16.60
2023-03-30T22:43:58.636Z,17.10
2023-03-30T22:46:27.799Z,15.10
2023-03-30T22:48:56.395Z,17.90
2023-03-30T22:51:27.840Z,16.80
2023-03-30T22:54:00.594Z,17.70
2023-03-30T22:56:30.085Z,15.00
2023-03-30T22:58:59.971Z,14.30
2023-03-30T23:01:32.713Z,15.60
2023-03-30T23:04:01.271Z,16.40
2023-03-30T23:06:29.380Z,15.70
2023-03-30T23:08:57.765Z,16.50
2023-03-30T23:11:26.539Z,14.20
2023-03-30T23:13:55.879Z,16.70
2023-03-30T23:16:24.048Z,16.00
2023-03-30T23:18:52.343Z,17.90
2023-03-30T23:21:22.340Z,16.70
2023-03-30T23:23:50.971Z,18.40
2023-03-30T23:26:19.724Z,18.60
2023-03-30T23:28:47.683Z,25.60
2023-03-30T23:31:18.139Z,16.80
2023-03-30T23:33:46.502Z,17.90
2023-03-30T23:36:17.607Z,19.20
2023-03-30T23:38:46.577Z,18.90
2023-03-30T23:41:17.304Z,19.00
2023-03-30T23:43:46.364Z,17.10
2023-03-30T23:46:15.699Z,18.70
2023-03-30T23:48:44.187Z,18.30
2023-03-30T23:51:12.462Z,16.60
2023-03-30T23:53:43.683Z,18.10
2023-03-30T23:56:17.664Z,16.50
2023-03-30T23:58:47.506Z,17.20
